Time;durP1;ratioP1;P1;durP2;ratioP2;P2;SDS_P1;SDS_P2;PMS_P1;PMS_P2;Temp;Humidity;BMP_temperature;BMP_pressure;BME280_temperature;BME280_humidity;BME280_pressure;Samples;Min_cycle;Max_cycle;Signal;HPM_P1;HPM_P2
2022/08/03 04:36:25;;;;;;;19.20;18.30;;;22.70;28.30;;;;;;4984050;28;20490;-73
2022/08/03 04:39:06;;;;;;;20.90;20.00;;;22.70;28.40;;;;;;4993333;28;20960;-73
2022/08/03 04:41:34;;;;;;;20.07;19.17;;;22.50;28.50;;;;;;4993001;28;20429;-72
2022/08/03 04:44:09;;;;;;;19.50;18.37;;;22.50;28.90;;;;;;4993165;28;20468;-73
2022/08/03 05:19:57;;;;;;;23.80;13.67;;;22.80;30.30;;;;;;4979857;28;20897;-69
2022/08/03 05:22:23;;;;;;;26.03;13.17;;;23.00;29.90;;;;;;4991728;28;20461;-69
2022/08/03 05:24:49;;;;;;;17.93;11.53;;;23.30;28.90;;;;;;4993396;28;20178;-69
2022/08/03 05:27:21;;;;;;;11.43;10.47;;;23.60;28.30;;;;;;4993419;28;20185;-70
2022/08/03 05:29:53;;;;;;;13.37;12.20;;;23.70;27.20;;;;;;4985823;28;20221;-69
2022/08/03 05:32:19;;;;;;;12.13;11.33;;;23.60;27.50;;;;;;4982955;28;20874;-69
2022/08/03 05:34:45;;;;;;;13.33;12.03;;;23.50;28.10;;;;;;4965589;28;20541;-70
2022/08/03 05:37:11;;;;;;;13.80;12.63;;;23.50;28.20;;;;;;4965550;28;20576;-69
2022/08/03 05:39:39;;;;;;;10.63;10.00;;;23.50;28.10;;;;;;4966163;28;20265;-70
2022/08/03 05:42:09;;;;;;;10.90;9.53;;;23.70;27.70;;;;;;4964173;28;20969;-70
2022/08/03 05:44:37;;;;;;;10.83;10.13;;;23.90;27.10;;;;;;4953969;28;20453;-70
2022/08/03 05:47:04;;;;;;;11.10;10.40;;;24.10;26.20;;;;;;4965587;28;20446;-71
2022/08/03 05:49:30;;;;;;;10.33;9.63;;;24.20;26.80;;;;;;4964948;28;20445;-71
2022/08/03 05:51:56;;;;;;;10.10;9.30;;;24.20;26.70;;;;;;4981595;28;20560;-72
2022/08/03 05:54:29;;;;;;;10.90;10.30;;;24.10;26.20;;;;;;4967822;28;20454;-71
2022/08/03 05:56:55;;;;;;;10.50;9.80;;;23.60;27.50;;;;;;4963006;28;20589;-69
2022/08/03 05:59:21;;;;;;;10.13;9.33;;;23.70;27.40;;;;;;4958355;28;20446;-69
2022/08/03 06:01:47;;;;;;;11.00;10.40;;;23.80;27.00;;;;;;4958634;28;20249;-68
2022/08/03 06:04:13;;;;;;;11.27;10.50;;;23.70;26.70;;;;;;4962870;28;20595;-70
2022/08/03 06:06:40;;;;;;;11.10;10.13;;;23.80;26.80;;;;;;4957127;28;20699;-69
2022/08/03 06:09:05;;;;;;;10.53;9.83;;;23.90;26.20;;;;;;4958317;28;20222;-69
2022/08/03 06:11:31;;;;;;;10.10;9.60;;;24.00;26.50;;;;;;4957947;28;20958;-69
2022/08/03 06:13:57;;;;;;;9.67;9.07;;;24.10;26.30;;;;;;4958626;28;20725;-70
2022/08/03 06:16:23;;;;;;;10.53;10.03;;;24.10;26.30;;;;;;4959149;28;20237;-69
2022/08/03 06:18:49;;;;;;;10.13;9.50;;;24.10;25.90;;;;;;4959691;28;20233;-70
2022/08/03 06:21:15;;;;;;;9.10;8.50;;;23.90;26.30;;;;;;4958979;28;20254;-69
2022/08/03 06:23:42;;;;;;;9.20;8.70;;;24.00;26.40;;;;;;4960733;28;20470;-68
2022/08/03 06:26:08;;;;;;;10.40;9.53;;;24.20;26.30;;;;;;4960748;28;20257;-68
2022/08/03 06:28:34;;;;;;;10.33;9.63;;;24.20;26.10;;;;;;4960906;28;20465;-72
2022/08/03 06:31:00;;;;;;;10.40;9.80;;;24.20;26.30;;;;;;4960211;28;20807;-70
2022/08/03 06:33:26;;;;;;;11.17;10.33;;;24.20;26.20;;;;;;4959643;28;20601;-69
2022/08/03 06:35:52;;;;;;;11.30;10.70;;;24.30;25.90;;;;;;4960717;28;20548;-69
2022/08/03 06:38:18;;;;;;;10.47;9.87;;;24.40;25.80;;;;;;4959473;28;20604;-69
2022/08/03 06:40:44;;;;;;;10.27;9.77;;;24.50;25.70;;;;;;4954349;28;20510;-69
2022/08/03 06:43:10;;;;;;;10.10;9.60;;;24.50;25.40;;;;;;4978745;28;20234;-69
2022/08/03 06:45:36;;;;;;;9.83;9.33;;;24.50;25.50;;;;;;4965413;28;20579;-69
2022/08/03 06:48:08;;;;;;;9.60;9.20;;;24.60;25.50;;;;;;4954626;28;20467;-69
2022/08/03 06:50:36;;;;;;;10.63;10.10;;;24.60;25.40;;;;;;4951451;28;20238;-69
2022/08/03 06:53:03;;;;;;;10.80;10.20;;;24.50;25.80;;;;;;4963700;28;20841;-69
2022/08/03 06:55:29;;;;;;;9.80;9.30;;;24.50;25.60;;;;;;4961548;28;20461;-69
2022/08/03 06:57:56;;;;;;;10.23;9.50;;;24.40;25.90;;;;;;4964504;28;21076;-69
2022/08/03 07:00:22;;;;;;;10.00;9.23;;;24.40;26.00;;;;;;4962351;28;20454;-73
2022/08/03 07:02:49;;;;;;;9.70;9.20;;;24.50;25.90;;;;;;4964687;28;20473;-73
2022/08/03 07:05:15;;;;;;;8.97;8.47;;;24.50;25.60;;;;;;4964474;28;20321;-73
2022/08/03 07:07:41;;;;;;;9.47;8.87;;;24.60;25.50;;;;;;4972467;28;20557;-73
2022/08/03 07:10:08;;;;;;;16.77;9.17;;;24.60;25.60;;;;;;4944722;28;20986;-73
2022/08/03 07:12:34;;;;;;;10.50;9.90;;;24.50;26.40;;;;;;4961549;28;20464;-73
2022/08/03 07:15:04;;;;;;;9.73;9.20;;;24.60;26.00;;;;;;4967925;28;20817;-73
2022/08/03 07:18:07;;;;;;;9.80;9.30;;;24.50;26.30;;;;;;4967982;28;20597;-73
2022/08/03 07:20:45;;;;;;;10.70;10.10;;;24.60;26.10;;;;;;4922259;28;20487;-74
2022/08/03 07:23:11;;;;;;;11.23;10.43;;;24.60;25.80;;;;;;4955461;28;20495;-74
2022/08/03 07:25:40;;;;;;;9.80;9.20;;;24.60;25.70;;;;;;4963466;28;20453;-73
2022/08/03 07:28:11;;;;;;;9.07;8.67;;;24.50;25.80;;;;;;4965503;28;20491;-73
2022/08/03 07:30:42;;;;;;;9.80;9.20;;;24.60;26.00;;;;;;4965426;28;20458;-73
2022/08/03 07:33:08;;;;;;;10.27;9.50;;;24.60;25.90;;;;;;4965091;28;20458;-74
2022/08/03 07:35:37;;;;;;;9.30;8.90;;;24.70;25.90;;;;;;4970281;28;20461;-73
2022/08/03 07:38:39;;;;;;;;;;;;;;;;;;;;;
2022/08/03 07:41:16;;;;;;;9.20;8.60;;;24.70;25.90;;;;;;4977080;28;20443;-73
2022/08/03 07:44:26;;;;;;;10.03;9.43;;;24.70;26.00;;;;;;4910198;28;20476;-74
2022/08/03 07:50:30;;;;;;;9.77;9.17;;;24.90;25.80;;;;;;4887920;29;20435;-70
2022/08/03 07:52:58;;;;;;;10.50;9.70;;;25.00;25.60;;;;;;4907913;29;20444;-73
2022/08/03 07:55:28;;;;;;;9.67;9.07;;;25.00;25.40;;;;;;4904363;29;20669;-73
2022/08/03 08:01:36;;;;;;;11.00;10.20;;;25.10;25.10;;;;;;4868375;29;21057;-73
2022/08/03 08:04:11;;;;;;;10.37;9.33;;;25.10;25.10;;;;;;4879005;29;20616;-73
2022/08/03 08:06:39;;;;;;;10.43;9.53;;;25.10;25.10;;;;;;4891375;29;20491;-74
2022/08/03 08:09:59;;;;;;;9.97;9.27;;;25.30;25.20;;;;;;4894335;29;20429;-74
2022/08/03 08:22:45;;;;;;;;;;;;;;;;;;;;;
2022/08/03 08:28:51;;;;;;;9.03;8.60;;;25.60;23.50;;;;;;4834823;29;21168;-74
2022/08/03 08:31:32;;;;;;;8.90;8.30;;;25.70;23.80;;;;;;4833888;29;21001;-74
2022/08/03 08:33:58;;;;;;;8.07;7.77;;;25.60;24.10;;;;;;4846225;29;20458;-74
2022/08/03 08:37:04;;;;;;;9.00;8.50;;;25.80;22.40;;;;;;4884325;29;20484;-73
2022/08/03 08:39:47;;;;;;;8.87;8.47;;;26.20;21.40;;;;;;4857075;29;20541;-74
2022/08/03 08:46:13;;;;;;;8.23;7.83;;;26.00;21.30;;;;;;4838216;29;20486;-72
2022/08/03 08:49:11;;;;;;;7.53;7.23;;;26.40;19.80;;;;;;4780883;30;20992;-73
2022/08/03 08:52:40;;;;;;;7.80;7.40;;;26.70;19.50;;;;;;4739685;30;20500;-73
2022/08/03 08:55:56;;;;;;;7.73;7.33;;;26.60;20.60;;;;;;4673696;30;20460;-73
2022/08/03 08:58:23;;;;;;;7.70;7.40;;;26.50;20.10;;;;;;4757731;29;20471;-73
2022/08/03 09:01:35;;;;;;;;;;;;;;;;;;;;;
2022/08/03 09:04:08;;;;;;;8.30;7.90;;;26.80;19.10;;;;;;4811095;29;20702;-73
2022/08/03 09:13:55;;;;;;;8.60;7.70;;;27.20;18.50;;;;;;4759784;30;20860;-73
2022/08/03 09:16:24;;;;;;;8.17;7.77;;;27.70;16.70;;;;;;4758936;29;20487;-73
2022/08/03 09:47:17;;;;;;;;;;;;;;;;;;;;;
2022/08/03 09:57:26;;;;;;;6.73;6.40;;;28.00;15.10;;;;;;4691702;30;20513;-74
2022/08/03 10:00:39;;;;;;;6.93;6.63;;;28.00;14.50;;;;;;4640471;30;20461;-74
2022/08/03 10:07:20;;;;;;;7.10;6.80;;;28.50;14.50;;;;;;4667690;30;20440;-74
2022/08/03 10:10:17;;;;;;;6.43;6.13;;;28.50;13.70;;;;;;4671240;30;20474;-74
2022/08/03 10:12:55;;;;;;;6.93;6.63;;;29.00;12.20;;;;;;4723558;30;20971;-74
2022/08/03 10:26:10;;;;;;;;;;;;;;;;;;;;;
2022/08/03 10:35:54;;;;;;;6.20;6.00;;;28.80;13.40;;;;;;4718091;30;20515;-74
2022/08/03 10:42:09;;;;;;;7.23;6.97;;;28.60;13.80;;;;;;4784150;29;20990;-74
2022/08/03 10:51:40;;;;;;;6.93;6.63;;;28.90;13.70;;;;;;4982140;28;20460;-74
2022/08/03 10:57:49;;;;;;;6.90;5.90;;;29.70;10.80;;;;;;4864459;29;20593;-74
2022/08/03 11:01:04;;;;;;;6.67;6.37;;;29.60;11.60;;;;;;4920767;29;20502;-74
2022/08/03 11:03:32;;;;;;;6.33;6.13;;;29.50;12.80;;;;;;4940835;28;20812;-73
2022/08/03 11:27:21;;;;;;;6.77;6.47;;;30.50;9.30;;;;;;4726377;30;20457;-71
2022/08/03 11:30:24;;;;;;;6.40;6.10;;;29.90;10.40;;;;;;4760752;30;20474;-72
2022/08/03 11:33:35;;;;;;;6.37;6.07;;;30.60;8.90;;;;;;4754888;30;20616;-70
2022/08/03 11:37:05;;;;;;;;;;;;;;;;;;;;;
2022/08/03 11:40:28;;;;;;;7.67;7.33;;;29.10;11.60;;;;;;4788242;29;20489;-72
2022/08/03 11:47:28;;;;;;;7.60;7.00;;;29.90;9.90;;;;;;4772046;29;20420;-72
2022/08/03 11:50:00;;;;;;;7.00;6.70;;;29.90;10.00;;;;;;4768786;30;20450;-72
2022/08/03 11:53:12;;;;;;;7.40;6.70;;;29.40;11.40;;;;;;4774442;29;21049;-71
2022/08/03 11:56:14;;;;;;;;;;;;;;;;;;;;;
2022/08/03 11:59:43;;;;;;;;;;;;;;;;;;;;;
2022/08/03 12:05:13;;;;;;;7.80;7.40;;;28.70;14.00;;;;;;4773126;29;20546;-71
2022/08/03 12:08:00;;;;;;;7.70;7.30;;;29.10;11.60;;;;;;4845097;29;20529;-72
2022/08/03 12:10:26;;;;;;;8.30;7.90;;;29.30;11.30;;;;;;4881793;29;20229;-71
2022/08/03 12:13:14;;;;;;;;;;;;;;;;;;;;;
2022/08/03 12:36:15;;;;;;;7.87;7.40;;;29.80;10.80;;;;;;4868605;29;21221;-71
2022/08/03 12:42:06;;;;;;;7.50;7.10;;;30.10;10.30;;;;;;4850864;29;20495;-70
2022/08/03 12:45:20;;;;;;;7.47;7.07;;;30.20;10.20;;;;;;4843374;29;20470;-70
2022/08/03 12:48:35;;;;;;;8.00;7.70;;;30.30;9.90;;;;;;4841243;29;20437;-71
2022/08/03 12:51:48;;;;;;;7.73;7.23;;;29.80;11.50;;;;;;4901384;29;20816;-71
2022/08/03 13:01:51;;;;;;;8.63;7.70;;;30.50;9.60;;;;;;4825067;29;20495;-71
2022/08/03 13:04:38;;;;;;;6.60;6.30;;;30.40;10.00;;;;;;4828083;29;20500;-70
2022/08/03 13:11:37;;;;;;;7.00;6.80;;;30.40;9.80;;;;;;4823601;29;20860;-71
2022/08/03 13:14:49;;;;;;;7.87;7.57;;;30.40;9.80;;;;;;4740615;29;21231;-70
2022/08/03 13:17:34;;;;;;;7.40;7.00;;;30.20;11.10;;;;;;4742293;30;20477;-71
2022/08/03 13:20:17;;;;;;;7.63;7.13;;;31.30;8.40;;;;;;4791499;29;20475;-71
2022/08/03 13:23:29;;;;;;;7.60;7.30;;;31.00;9.10;;;;;;4802210;29;20533;-71
2022/08/03 13:26:03;;;;;;;8.27;7.77;;;30.80;9.80;;;;;;4803489;29;20542;-71
2022/08/03 13:28:41;;;;;;;8.30;7.53;;;29.90;11.30;;;;;;4847155;29;20460;-71
2022/08/03 13:31:22;;;;;;;7.30;7.00;;;29.70;11.30;;;;;;4901564;29;20459;-71
2022/08/03 13:34:21;;;;;;;;;;;;;;;;;;;;;
2022/08/03 13:37:15;;;;;;;7.93;7.60;;;30.50;10.10;;;;;;4843224;29;20455;-71
2022/08/03 13:39:44;;;;;;;8.67;8.07;;;30.20;10.20;;;;;;4895991;28;20769;-71
2022/08/03 13:42:10;;;;;;;7.40;7.10;;;30.20;10.50;;;;;;4940359;28;20823;-71
2022/08/03 13:44:36;;;;;;;8.63;8.23;;;30.60;10.00;;;;;;4945573;28;20462;-71
2022/08/03 13:47:04;;;;;;;8.20;7.87;;;30.40;10.00;;;;;;4942896;28;21053;-71
2022/08/03 13:53:02;;;;;;;8.10;7.70;;;31.10;9.30;;;;;;4873640;29;21045;-71
2022/08/03 13:58:57;;;;;;;7.80;7.50;;;31.00;8.90;;;;;;4945191;28;20472;-71
2022/08/03 14:01:24;;;;;;;7.20;6.90;;;30.90;8.90;;;;;;4946880;28;20451;-71
2022/08/03 14:06:31;;;;;;;7.47;7.07;;;31.20;8.00;;;;;;4923126;28;20464;-69
2022/08/03 14:12:40;;;;;;;7.50;7.10;;;30.70;9.70;;;;;;4898517;28;20533;-73
2022/08/03 14:15:08;;;;;;;8.00;7.60;;;31.00;8.50;;;;;;4944640;28;20509;-69
2022/08/03 14:17:35;;;;;;;7.17;6.87;;;30.50;9.40;;;;;;4926886;28;20453;-69
2022/08/03 14:20:05;;;;;;;7.80;7.50;;;30.10;10.20;;;;;;4918556;28;20511;-69
2022/08/03 14:22:31;;;;;;;7.87;7.37;;;29.90;10.10;;;;;;4947238;28;20479;-73
2022/08/03 14:24:57;;;;;;;7.47;7.17;;;31.00;8.80;;;;;;4939534;28;20527;-73
2022/08/03 14:27:23;;;;;;;8.37;7.97;;;30.90;9.10;;;;;;4925026;28;20587;-74
2022/08/03 14:29:52;;;;;;;8.60;7.80;;;30.40;9.70;;;;;;4925165;28;20627;-73
2022/08/03 14:32:18;;;;;;;7.20;6.90;;;30.40;10.30;;;;;;4951996;28;20863;-73
2022/08/03 14:37:46;;;;;;;8.53;8.00;;;30.70;9.10;;;;;;4923560;28;20448;-69
2022/08/03 14:40:12;;;;;;;8.10;7.70;;;29.80;11.40;;;;;;4921217;29;20459;-69
2022/08/03 14:42:42;;;;;;;8.53;8.07;;;29.30;12.10;;;;;;4915074;28;20998;-69
2022/08/03 14:45:08;;;;;;;8.40;7.83;;;30.40;10.00;;;;;;4923172;29;20312;-69
2022/08/03 14:47:34;;;;;;;8.87;8.27;;;30.30;9.30;;;;;;4918574;28;20487;-69
2022/08/03 14:52:44;;;;;;;8.87;8.47;;;30.30;10.60;;;;;;4959393;28;20469;-72
2022/08/03 15:00:48;;;;;;;9.50;8.90;;;30.00;10.10;;;;;;4960215;28;20851;-68
2022/08/03 15:10:58;;;;;;;8.30;7.90;;;31.00;8.70;;;;;;4905618;29;20468;-73
2022/08/03 15:16:35;;;;;;;7.90;7.50;;;30.30;10.30;;;;;;4943469;28;20230;-68
2022/08/03 15:21:59;;;;;;;7.50;7.00;;;29.70;11.70;;;;;;4937950;28;20467;-72
2022/08/03 15:30:01;;;;;;;8.17;7.77;;;30.50;9.40;;;;;;4918318;23;20463;-72
2022/08/03 15:38:17;;;;;;;8.57;7.83;;;30.40;8.60;;;;;;4755716;26;20478;-72
2022/08/03 15:40:42;;;;;;;8.27;7.77;;;30.30;9.20;;;;;;4854618;29;20456;-68
2022/08/03 15:43:14;;;;;;;7.53;7.23;;;30.60;8.20;;;;;;4894200;29;20864;-73
2022/08/03 15:45:46;;;;;;;7.63;7.33;;;30.20;9.60;;;;;;4911077;29;20180;-72
2022/08/03 15:48:24;;;;;;;7.83;7.43;;;30.50;8.20;;;;;;4897831;28;20467;-67
2022/08/03 15:50:59;;;;;;;7.17;6.77;;;30.60;8.70;;;;;;4931426;29;20674;-73
2022/08/03 15:53:25;;;;;;;7.47;7.17;;;30.10;10.20;;;;;;4932217;28;20486;-68
2022/08/03 15:59:03;;;;;;;7.17;6.90;;;29.50;10.80;;;;;;5022075;23;20668;-66
2022/08/03 16:01:39;;;;;;;7.27;6.97;;;29.70;10.40;;;;;;4922769;29;20440;-66
2022/08/03 16:04:05;;;;;;;7.17;6.77;;;30.00;10.20;;;;;;4938385;28;20438;-67
2022/08/03 16:06:36;;;;;;;7.27;6.97;;;29.70;10.60;;;;;;4938073;28;20470;-67
2022/08/03 16:09:06;;;;;;;8.27;7.87;;;29.60;10.70;;;;;;4946839;28;20931;-67
2022/08/03 16:11:33;;;;;;;8.07;7.57;;;29.90;10.10;;;;;;4938501;28;20450;-67
2022/08/03 16:13:58;;;;;;;7.47;7.17;;;29.30;12.30;;;;;;4938771;29;20947;-67
2022/08/03 16:16:25;;;;;;;8.43;7.93;;;29.30;11.80;;;;;;4939116;28;20467;-67
2022/08/03 16:19:01;;;;;;;8.17;7.80;;;29.10;12.60;;;;;;4937580;29;20687;-67
2022/08/03 16:21:27;;;;;;;7.87;7.57;;;28.60;13.30;;;;;;4926965;28;20462;-67
2022/08/03 16:23:53;;;;;;;6.97;6.57;;;28.90;12.70;;;;;;4938574;28;20831;-67
2022/08/03 16:26:19;;;;;;;7.70;7.30;;;28.80;12.00;;;;;;4939558;28;20466;-67
2022/08/03 16:28:45;;;;;;;7.77;7.37;;;28.60;13.30;;;;;;4938175;28;20788;-67
2022/08/03 16:31:21;;;;;;;7.67;7.27;;;29.20;10.90;;;;;;4938312;28;20540;-67
2022/08/03 16:33:47;;;;;;;11.47;10.10;;;29.50;10.40;;;;;;4937931;29;20561;-67
2022/08/03 16:36:13;;;;;;;18.87;17.00;;;29.40;11.00;;;;;;4938097;29;20463;-67
2022/08/03 16:38:38;;;;;;;26.47;24.27;;;29.30;12.70;;;;;;4937242;29;20463;-67
2022/08/03 16:41:04;;;;;;;186.90;169.40;;;29.10;11.90;;;;;;4934788;28;20508;-67
2022/08/03 16:43:34;;;;;;;381.27;342.87;;;28.90;12.70;;;;;;4940653;29;20231;-67
2022/08/03 16:46:00;;;;;;;28.00;25.37;;;28.80;13.50;;;;;;4939799;28;20231;-66
2022/08/03 16:48:27;;;;;;;136.73;122.40;;;29.30;10.00;;;;;;4937942;28;20463;-67
2022/08/03 16:50:53;;;;;;;34.13;31.03;;;29.50;11.00;;;;;;4930578;28;20764;-67
2022/08/03 16:53:22;;;;;;;70.47;64.17;;;29.50;9.90;;;;;;4936379;29;20532;-67
2022/08/03 16:55:55;;;;;;;201.67;183.93;;;29.30;9.80;;;;;;4938507;29;20462;-68
2022/08/03 16:58:21;;;;;;;158.00;143.37;;;29.40;10.90;;;;;;4937490;29;20471;-67
2022/08/03 17:00:47;;;;;;;471.20;428.40;;;29.50;10.70;;;;;;4935973;28;20459;-66
2022/08/03 17:03:24;;;;;;;76.17;68.63;;;29.50;11.10;;;;;;4939514;28;20521;-66
2022/08/03 17:05:53;;;;;;;463.57;416.50;;;29.50;10.00;;;;;;4939292;29;20289;-66
2022/08/03 17:08:28;;;;;;;163.07;145.67;;;29.20;11.60;;;;;;4938877;29;20458;-67
2022/08/03 17:10:54;;;;;;;120.10;107.43;;;28.90;11.30;;;;;;4931688;28;20940;-68
2022/08/03 17:13:23;;;;;;;250.43;223.73;;;28.70;11.70;;;;;;4927150;29;20502;-66
2022/08/03 17:16:10;;;;;;;171.60;154.00;;;28.90;11.80;;;;;;4934549;29;20489;-65
2022/08/03 17:18:51;;;;;;;135.97;121.70;;;29.00;11.30;;;;;;4919308;28;20977;-65
2022/08/03 17:21:36;;;;;;;136.37;121.43;;;29.30;10.50;;;;;;4912521;29;20459;-66
2022/08/03 17:24:43;;;;;;;138.40;124.97;;;29.20;11.10;;;;;;4903197;29;20535;-65
2022/08/03 17:27:17;;;;;;;15.77;14.50;;;29.30;10.30;;;;;;4901498;28;20464;-65
2022/08/03 17:29:47;;;;;;;60.30;54.10;;;29.50;9.10;;;;;;4926243;28;20520;-65
2022/08/03 17:32:19;;;;;;;40.80;36.60;;;29.40;10.30;;;;;;4921053;28;20545;-66
2022/08/03 17:34:48;;;;;;;52.37;47.17;;;29.30;9.80;;;;;;4928114;28;21160;-66
2022/08/03 17:37:18;;;;;;;83.80;75.60;;;29.30;10.30;;;;;;4938432;28;20533;-67
2022/08/03 17:39:45;;;;;;;75.67;67.70;;;28.80;11.70;;;;;;4937278;28;20502;-66
2022/08/03 17:42:12;;;;;;;32.23;29.40;;;28.60;12.00;;;;;;4938557;28;20454;-66
2022/08/03 17:44:41;;;;;;;25.00;22.80;;;28.60;11.60;;;;;;4936198;28;20458;-66
2022/08/03 17:47:07;;;;;;;14.23;13.23;;;28.70;11.00;;;;;;4937956;28;20451;-66
2022/08/03 17:49:33;;;;;;;15.13;13.63;;;28.80;11.00;;;;;;4937961;28;20862;-66
2022/08/03 17:52:04;;;;;;;19.00;17.40;;;28.70;11.30;;;;;;4936698;28;20447;-66
2022/08/03 17:54:49;;;;;;;26.17;23.63;;;28.80;11.40;;;;;;4938361;28;20565;-68
2022/08/03 17:57:37;;;;;;;15.47;14.20;;;28.70;11.20;;;;;;4938073;28;20459;-68
2022/08/03 18:05:27;;;;;;;44.37;30.07;;;28.60;11.90;;;;;;4960241;23;20497;-72
2022/08/03 18:08:00;;;;;;;28.43;19.47;;;28.40;12.50;;;;;;4900226;29;20451;-69
2022/08/03 18:10:28;;;;;;;10.67;9.87;;;28.40;12.00;;;;;;4903831;29;20839;-68
2022/08/03 18:13:01;;;;;;;12.90;11.77;;;28.50;11.70;;;;;;4897099;29;21046;-68
2022/08/03 18:15:33;;;;;;;12.13;11.20;;;28.50;12.00;;;;;;4881244;29;21158;-68
2022/08/03 18:18:04;;;;;;;10.73;9.93;;;28.40;12.10;;;;;;4875682;29;20462;-68
2022/08/03 18:20:32;;;;;;;11.07;10.00;;;28.40;12.10;;;;;;4881693;29;20462;-67
2022/08/03 18:23:04;;;;;;;13.90;12.60;;;28.40;12.40;;;;;;4899004;29;20460;-67
2022/08/03 18:25:34;;;;;;;20.93;15.83;;;28.30;12.80;;;;;;4902031;29;20823;-67
2022/08/03 18:28:04;;;;;;;12.03;10.97;;;28.20;13.00;;;;;;4910536;29;20550;-67
2022/08/03 18:30:31;;;;;;;19.50;17.07;;;28.20;12.80;;;;;;4908180;29;20830;-68
2022/08/03 18:33:17;;;;;;;14.40;13.33;;;28.10;13.10;;;;;;4908009;29;20997;-74
2022/08/03 18:35:44;;;;;;;13.40;12.70;;;28.30;13.10;;;;;;4898975;29;20586;-73
2022/08/03 18:38:15;;;;;;;13.70;13.10;;;28.30;13.00;;;;;;4906962;29;20504;-73
2022/08/03 18:40:42;;;;;;;12.63;12.10;;;28.40;12.80;;;;;;4904120;29;20462;-74
2022/08/03 18:43:09;;;;;;;12.53;11.90;;;28.40;12.40;;;;;;4907754;29;20456;-73
2022/08/03 18:53:49;;;;;;;12.47;11.97;;;28.60;12.00;;;;;;4942860;28;21218;-71
2022/08/03 18:56:33;;;;;;;14.07;13.07;;;28.60;12.10;;;;;;4942996;29;20894;-71
2022/08/03 18:59:18;;;;;;;13.93;13.23;;;28.60;12.00;;;;;;4923207;28;20462;-71
2022/08/03 19:02:11;;;;;;;12.90;12.10;;;28.60;12.20;;;;;;4924596;29;20456;-71
2022/08/03 19:04:46;;;;;;;14.17;13.43;;;28.60;12.50;;;;;;4921993;28;20470;-70
2022/08/03 19:07:17;;;;;;;14.30;13.50;;;28.60;12.80;;;;;;4926448;28;20547;-71
2022/08/03 19:09:54;;;;;;;13.90;13.23;;;28.60;13.00;;;;;;4924796;29;20482;-71
2022/08/03 19:12:40;;;;;;;12.60;12.00;;;28.60;13.10;;;;;;4924360;29;20514;-70
2022/08/03 19:15:09;;;;;;;13.53;12.70;;;28.60;13.10;;;;;;4935978;29;20882;-64
2022/08/03 19:17:46;;;;;;;13.97;13.27;;;28.50;13.00;;;;;;4924714;29;20456;-72
2022/08/03 19:20:12;;;;;;;14.30;13.50;;;28.50;13.40;;;;;;4924473;29;20968;-63
2022/08/03 19:22:39;;;;;;;14.20;13.20;;;28.50;13.40;;;;;;4923378;29;20436;-61
2022/08/03 19:25:06;;;;;;;13.97;13.33;;;28.50;13.60;;;;;;4923652;29;20254;-61
2022/08/03 19:27:33;;;;;;;13.50;12.90;;;28.50;13.90;;;;;;4924617;29;21157;-62
2022/08/03 19:30:01;;;;;;;14.73;13.73;;;28.40;13.60;;;;;;4925272;29;20461;-62
2022/08/03 19:32:28;;;;;;;12.87;12.27;;;28.40;13.80;;;;;;4924949;29;20447;-62
2022/08/03 19:34:55;;;;;;;12.77;12.17;;;28.40;13.80;;;;;;4925147;29;20535;-61
2022/08/03 19:37:21;;;;;;;12.57;12.07;;;28.30;13.70;;;;;;4925191;29;20447;-62
2022/08/03 19:39:47;;;;;;;12.90;12.40;;;28.30;13.70;;;;;;4924384;29;20999;-61
2022/08/03 19:42:19;;;;;;;14.00;13.13;;;28.30;14.00;;;;;;4921769;29;20861;-62
2022/08/03 19:45:03;;;;;;;13.03;12.33;;;28.30;14.00;;;;;;4926484;29;20458;-62
2022/08/03 19:47:43;;;;;;;13.43;12.63;;;28.20;14.20;;;;;;4924678;29;20495;-62
2022/08/03 19:50:09;;;;;;;12.57;12.00;;;28.20;14.30;;;;;;4922567;29;20517;-62
2022/08/03 19:52:37;;;;;;;12.50;11.90;;;28.20;14.40;;;;;;4925584;29;20578;-63
2022/08/03 19:55:06;;;;;;;12.33;11.73;;;28.10;14.30;;;;;;4924707;29;20975;-63
2022/08/03 19:57:32;;;;;;;13.67;12.80;;;28.10;14.30;;;;;;4922978;29;20543;-63
2022/08/03 20:00:00;;;;;;;13.63;13.03;;;28.10;14.20;;;;;;4924763;29;20452;-63
2022/08/03 20:02:26;;;;;;;13.60;12.90;;;28.10;14.30;;;;;;4925817;29;20483;-63
2022/08/03 20:04:52;;;;;;;13.27;12.73;;;28.10;14.30;;;;;;4926077;29;20468;-64
2022/08/03 20:07:18;;;;;;;14.83;14.13;;;28.00;14.20;;;;;;4923971;29;20231;-63
2022/08/03 20:09:45;;;;;;;15.00;14.00;;;28.00;14.00;;;;;;4925095;29;20223;-63
2022/08/03 20:12:11;;;;;;;14.13;13.33;;;28.00;13.90;;;;;;4924578;29;20491;-63
2022/08/03 20:14:38;;;;;;;14.03;13.23;;;28.00;13.90;;;;;;4924193;29;20896;-63
2022/08/03 20:17:05;;;;;;;13.13;12.37;;;28.00;14.00;;;;;;4924670;29;20262;-63
2022/08/03 20:19:31;;;;;;;14.03;13.33;;;27.90;14.10;;;;;;4924276;29;20889;-63
2022/08/03 20:21:58;;;;;;;14.00;13.30;;;27.90;14.30;;;;;;4924216;29;20538;-64
2022/08/03 20:24:31;;;;;;;12.47;11.87;;;27.90;14.00;;;;;;4924288;29;20290;-62
2022/08/03 20:27:00;;;;;;;12.00;11.40;;;27.90;13.60;;;;;;4923649;29;20514;-63
2022/08/03 20:29:40;;;;;;;12.60;12.10;;;27.90;13.50;;;;;;4924331;29;20515;-63
2022/08/03 20:32:06;;;;;;;12.73;12.23;;;27.80;13.50;;;;;;4923447;29;20463;-61
2022/08/03 20:34:32;;;;;;;13.57;12.47;;;27.80;13.50;;;;;;4922457;29;20506;-61
2022/08/03 20:36:58;;;;;;;12.70;12.10;;;27.80;13.50;;;;;;4922644;29;20486;-61
2022/08/03 20:39:23;;;;;;;13.73;12.83;;;27.80;13.50;;;;;;4922697;29;20338;-61
2022/08/03 20:41:49;;;;;;;12.47;11.87;;;27.80;13.50;;;;;;4921504;29;20254;-61
2022/08/03 20:44:15;;;;;;;12.07;11.27;;;27.80;13.60;;;;;;4923378;29;20227;-61
2022/08/03 20:46:40;;;;;;;11.37;10.87;;;27.80;13.60;;;;;;4922484;29;20234;-63
2022/08/03 20:49:06;;;;;;;11.13;10.60;;;27.80;13.50;;;;;;4923442;29;20262;-63
2022/08/03 20:51:35;;;;;;;11.40;10.90;;;27.70;13.40;;;;;;4923509;29;20291;-63
2022/08/03 20:54:01;;;;;;;13.10;12.40;;;27.70;13.60;;;;;;4923625;29;20236;-64
2022/08/03 20:56:32;;;;;;;12.00;11.30;;;27.70;13.40;;;;;;4922923;29;20991;-64
2022/08/03 20:59:03;;;;;;;12.13;11.20;;;27.70;13.40;;;;;;4923547;29;20451;-63
2022/08/03 21:01:32;;;;;;;12.17;11.47;;;27.70;13.50;;;;;;4921322;29;20872;-64
2022/08/03 21:03:58;;;;;;;12.20;11.70;;;27.60;13.40;;;;;;4922788;29;20456;-64
2022/08/03 21:06:27;;;;;;;11.63;11.03;;;27.60;14.00;;;;;;4922909;29;20478;-64
2022/08/03 21:09:00;;;;;;;11.93;11.23;;;27.60;13.50;;;;;;4922773;29;20251;-64
2022/08/03 21:11:31;;;;;;;12.53;11.90;;;27.50;13.60;;;;;;4920522;29;20458;-63
2022/08/03 21:14:04;;;;;;;11.70;11.20;;;27.50;13.50;;;;;;4923150;29;20835;-64
2022/08/03 21:16:35;;;;;;;11.60;10.93;;;27.50;13.30;;;;;;4923506;29;20975;-64
2022/08/03 21:19:02;;;;;;;10.70;10.30;;;27.50;13.60;;;;;;4924435;29;20471;-64
2022/08/03 21:21:31;;;;;;;10.40;10.00;;;27.50;13.40;;;;;;4940041;29;20466;-64
2022/08/03 21:24:01;;;;;;;11.10;10.50;;;27.50;13.40;;;;;;4939936;28;20562;-63
2022/08/03 21:26:32;;;;;;;11.10;10.60;;;27.50;13.30;;;;;;4941332;28;20458;-64
2022/08/03 21:28:59;;;;;;;11.00;10.50;;;27.50;13.30;;;;;;4944204;29;20481;-64
2022/08/03 21:31:25;;;;;;;10.70;10.00;;;27.50;13.30;;;;;;4942160;29;20455;-64
2022/08/03 21:33:56;;;;;;;11.27;10.77;;;27.40;13.90;;;;;;4940056;28;20479;-64
2022/08/03 21:36:23;;;;;;;10.93;10.53;;;27.40;13.30;;;;;;4943082;29;20967;-64
2022/08/03 21:38:48;;;;;;;12.53;11.50;;;27.40;13.30;;;;;;4940648;28;20538;-63
2022/08/03 21:41:14;;;;;;;11.10;10.70;;;27.40;13.50;;;;;;4940782;28;21078;-64
2022/08/03 21:43:40;;;;;;;11.77;11.03;;;27.30;13.60;;;;;;4941471;28;20995;-64
2022/08/03 21:46:06;;;;;;;11.37;10.97;;;27.30;13.70;;;;;;4941384;29;20227;-64
2022/08/03 21:48:36;;;;;;;10.20;9.70;;;27.30;13.80;;;;;;4943527;29;20282;-64
2022/08/03 21:51:04;;;;;;;9.60;9.20;;;27.20;13.80;;;;;;4941096;29;20459;-63
2022/08/03 21:53:32;;;;;;;10.03;9.53;;;27.20;13.80;;;;;;4940724;29;20467;-62
2022/08/03 21:56:06;;;;;;;9.80;9.30;;;27.20;13.90;;;;;;4938283;28;20459;-62
2022/08/03 21:58:41;;;;;;;9.70;9.30;;;27.20;14.00;;;;;;4941205;28;20470;-62
2022/08/03 22:01:08;;;;;;;10.13;9.70;;;27.20;14.10;;;;;;4948848;29;20435;-62
2022/08/03 22:03:36;;;;;;;11.83;11.23;;;27.20;14.30;;;;;;4952967;29;20418;-62
2022/08/03 22:06:01;;;;;;;11.47;10.67;;;27.20;14.50;;;;;;4952958;29;20522;-62
2022/08/03 22:08:27;;;;;;;11.00;10.60;;;27.10;14.40;;;;;;4953317;28;20463;-61
2022/08/03 22:10:53;;;;;;;12.20;11.60;;;27.10;14.40;;;;;;4953107;28;20223;-62
2022/08/03 22:13:19;;;;;;;11.30;10.70;;;27.10;14.50;;;;;;4953266;29;20207;-62
2022/08/03 22:15:46;;;;;;;11.03;10.53;;;27.00;14.60;;;;;;4953236;29;20175;-62
2022/08/03 22:18:12;;;;;;;10.67;10.13;;;27.00;14.60;;;;;;4952929;29;20514;-62
2022/08/03 22:20:38;;;;;;;9.90;9.40;;;27.00;14.80;;;;;;4952022;28;20497;-61
2022/08/03 22:23:06;;;;;;;10.07;9.57;;;27.00;14.90;;;;;;4952544;29;20182;-61